createdAt,value
2022-11-08T00:02:59.225Z,12.60
2022-11-08T00:07:19.470Z,12.50
2022-11-08T00:11:40.370Z,12.50
2022-11-08T00:15:43.184Z,12.50
2022-11-08T00:19:47.478Z,12.50
2022-11-08T00:23:50.294Z,12.50
2022-11-08T00:27:53.239Z,12.50
2022-11-08T00:31:56.043Z,12.50
2022-11-08T00:36:01.285Z,12.50
2022-11-08T00:40:04.211Z,12.50
2022-11-08T00:44:07.252Z,12.50
2022-11-08T00:48:10.070Z,12.40
2022-11-08T00:52:14.224Z,12.40
2022-11-08T00:56:17.927Z,12.40
2022-11-08T01:00:21.022Z,12.30
2022-11-08T01:04:23.823Z,12.30
2022-11-08T01:08:28.006Z,12.40
2022-11-08T01:12:30.853Z,12.40
2022-11-08T01:16:35.028Z,12.40
2022-11-08T01:20:39.603Z,12.30
2022-11-08T01:24:43.747Z,12.30
2022-11-08T01:28:47.209Z,12.30
2022-11-08T01:32:50.011Z,12.20
2022-11-08T01:36:52.792Z,12.10
2022-11-08T01:40:56.959Z,12.10
2022-11-08T01:45:00.623Z,12.20
2022-11-08T01:49:25.914Z,12.20
2022-11-08T01:53:30.353Z,12.20
2022-11-08T01:57:38.785Z,12.30
2022-11-08T02:01:42.125Z,12.20
2022-11-08T02:05:46.283Z,12.20
2022-11-08T02:09:49.279Z,12.20
2022-11-08T02:13:54.330Z,12.20
2022-11-08T02:17:57.208Z,12.10
2022-11-08T02:22:04.901Z,12.10
2022-11-08T02:26:09.319Z,12.00
2022-11-08T02:30:12.174Z,12.00
2022-11-08T02:34:15.149Z,11.90
2022-11-08T02:38:18.714Z,11.90
2022-11-08T02:42:23.047Z,11.90
2022-11-08T02:46:25.835Z,11.90
2022-11-08T02:50:28.732Z,11.90
2022-11-08T02:54:31.608Z,11.90
2022-11-08T02:58:35.858Z,11.90
2022-11-08T03:02:38.693Z,12.00
2022-11-08T03:06:41.528Z,12.00
2022-11-08T03:10:44.306Z,12.10
2022-11-08T03:14:48.797Z,12.10
2022-11-08T03:18:51.750Z,12.10
2022-11-08T03:22:59.426Z,12.10
2022-11-08T03:27:02.233Z,12.20
2022-11-08T03:31:06.666Z,12.20
2022-11-08T03:35:10.226Z,12.30
2022-11-08T03:39:13.150Z,12.30
2022-11-08T03:43:16.343Z,12.40
2022-11-08T03:47:20.503Z,12.40
2022-11-08T03:51:23.318Z,12.50
2022-11-08T03:55:28.149Z,12.50
2022-11-08T03:59:30.971Z,12.60
2022-11-08T04:03:35.298Z,12.60
2022-11-08T04:07:38.564Z,12.60
2022-11-08T04:11:58.881Z,12.50
2022-11-08T04:16:01.779Z,12.40
2022-11-08T04:20:24.882Z,12.40
2022-11-08T04:24:27.684Z,12.30
2022-11-08T04:28:32.412Z,12.20
2022-11-08T04:32:35.236Z,12.10
2022-11-08T04:36:39.416Z,12.10
2022-11-08T04:40:42.275Z,12.00
2022-11-08T04:44:45.073Z,12.00
2022-11-08T04:48:50.556Z,11.90
2022-11-08T04:52:56.028Z,11.80
2022-11-08T04:56:58.852Z,11.70
2022-11-08T05:01:02.444Z,11.60
2022-11-08T05:05:05.892Z,11.50
2022-11-08T05:09:11.317Z,11.50
2022-11-08T05:13:14.125Z,11.40
2022-11-08T05:17:17.641Z,11.30
2022-11-08T05:21:39.491Z,11.30
2022-11-08T05:25:45.748Z,11.30
2022-11-08T05:29:48.599Z,11.20
2022-11-08T05:33:52.809Z,11.20
2022-11-08T05:37:55.631Z,11.20
2022-11-08T05:41:59.839Z,11.20
2022-11-08T05:46:02.715Z,11.20
2022-11-08T05:50:06.686Z,11.10
2022-11-08T05:54:09.621Z,11.10
2022-11-08T05:58:14.100Z,11.10
2022-11-08T06:02:18.421Z,11.10
2022-11-08T06:06:22.907Z,11.10
2022-11-08T06:10:26.236Z,11.10
2022-11-08T06:14:30.640Z,11.10
2022-11-08T06:18:34.763Z,11.10
2022-11-08T06:22:37.589Z,11.10
2022-11-08T06:26:40.408Z,11.10
2022-11-08T06:30:44.555Z,11.10
2022-11-08T06:34:47.409Z,11.10
2022-11-08T06:38:55.416Z,11.10
2022-11-08T06:42:58.672Z,11.10
2022-11-08T06:47:02.848Z,11.20
2022-11-08T06:51:06.333Z,11.20
2022-11-08T06:55:09.403Z,11.20
2022-11-08T06:59:12.511Z,11.10
2022-11-08T07:03:18.804Z,11.10
2022-11-08T07:07:21.939Z,11.00
2022-11-08T07:11:25.196Z,11.00
2022-11-08T07:15:28.129Z,11.00
2022-11-08T07:19:32.432Z,11.00
2022-11-08T07:23:35.256Z,11.00
2022-11-08T07:27:38.104Z,11.10
2022-11-08T07:31:40.933Z,11.20
2022-11-08T07:35:46.076Z,11.30
2022-11-08T07:39:48.905Z,11.40
2022-11-08T07:43:51.721Z,11.60
2022-11-08T07:48:00.192Z,11.70
2022-11-08T07:52:04.608Z,11.80
2022-11-08T07:56:07.786Z,12.00
2022-11-08T08:00:11.476Z,12.10
2022-11-08T08:04:17.010Z,12.30
2022-11-08T08:08:21.289Z,12.40
2022-11-08T08:12:24.192Z,12.50
2022-11-08T08:16:26.995Z,12.60
2022-11-08T08:20:30.547Z,12.60
2022-11-08T08:24:34.711Z,12.60
2022-11-08T08:28:37.607Z,12.60
2022-11-08T08:32:40.423Z,12.70
2022-11-08T08:36:43.258Z,12.70
2022-11-08T08:40:47.393Z,12.80
2022-11-08T08:44:50.201Z,12.90
2022-11-08T08:48:53.470Z,13.00
2022-11-08T08:52:59.947Z,13.10
2022-11-08T08:57:04.149Z,13.20
2022-11-08T09:05:32.055Z,13.50
2022-11-08T09:09:36.156Z,13.80
2022-11-08T09:13:40.310Z,14.20
2022-11-08T09:17:43.564Z,14.50
2022-11-08T09:21:46.483Z,14.80
2022-11-08T09:25:49.374Z,15.00
2022-11-08T09:29:53.516Z,15.30
2022-11-08T09:33:56.550Z,15.40
2022-11-08T09:37:59.906Z,15.40
2022-11-08T09:42:35.325Z,15.50
2022-11-08T09:46:44.587Z,15.60
2022-11-08T09:50:47.948Z,15.60
2022-11-08T09:54:52.757Z,15.50
2022-11-08T09:59:02.030Z,15.30
2022-11-08T10:03:06.413Z,15.20
2022-11-08T10:07:23.731Z,15.00
2022-11-08T10:11:44.543Z,14.80
2022-11-08T10:15:55.469Z,14.90
2022-11-08T10:20:14.972Z,15.00
2022-11-08T10:24:23.383Z,15.10
2022-11-08T10:28:35.375Z,15.10
2022-11-08T10:32:38.394Z,15.20
2022-11-08T10:36:45.143Z,15.30
2022-11-08T10:40:57.902Z,15.30
2022-11-08T10:45:01.093Z,15.20
2022-11-08T10:49:14.793Z,15.20
2022-11-08T10:53:23.467Z,15.30
2022-11-08T10:57:38.376Z,15.50
2022-11-08T11:01:51.564Z,15.50
2022-11-08T11:05:59.764Z,15.60
2022-11-08T11:10:24.653Z,15.70
2022-11-08T11:14:27.597Z,15.70
2022-11-08T11:18:33.090Z,15.80
2022-11-08T11:22:36.436Z,15.90
2022-11-08T11:26:44.777Z,15.90
2022-11-08T11:31:01.430Z,15.90
2022-11-08T11:35:06.280Z,15.90
2022-11-08T11:39:19.674Z,15.90
2022-11-08T11:43:30.714Z,16.00
2022-11-08T11:47:38.413Z,16.00
2022-11-08T11:51:41.390Z,16.00
2022-11-08T11:56:03.250Z,16.00
2022-11-08T12:00:10.971Z,16.00
2022-11-08T12:04:28.920Z,16.00
2022-11-08T12:08:44.343Z,16.10
2022-11-08T12:12:57.149Z,16.10
2022-11-08T12:17:15.124Z,16.10
2022-11-08T12:21:28.184Z,16.20
2022-11-08T12:25:37.393Z,16.20
2022-11-08T12:29:46.326Z,16.30
2022-11-08T12:34:01.976Z,16.30
2022-11-08T12:38:17.206Z,16.40
2022-11-08T12:42:35.612Z,16.50
2022-11-08T12:46:48.657Z,16.40
2022-11-08T12:51:02.080Z,16.40
2022-11-08T12:55:09.972Z,16.90
2022-11-08T12:59:21.088Z,16.40
2022-11-08T13:03:41.821Z,16.40
2022-11-08T13:07:51.060Z,16.40
2022-11-08T13:12:03.003Z,16.30
2022-11-08T13:16:11.775Z,16.30
2022-11-08T13:20:39.132Z,16.20
2022-11-08T13:24:45.106Z,16.20
2022-11-08T13:28:49.699Z,16.10
2022-11-08T13:32:56.803Z,16.10
2022-11-08T13:37:30.471Z,16.10
2022-11-08T13:42:01.841Z,16.10
2022-11-08T13:46:50.211Z,16.10
2022-11-08T13:50:55.434Z,16.10
2022-11-08T13:54:58.365Z,16.00
2022-11-08T13:59:02.555Z,16.00
2022-11-08T14:03:46.479Z,15.90
2022-11-08T14:08:18.973Z,15.90
2022-11-08T14:12:30.706Z,15.80
2022-11-08T14:16:45.465Z,15.80
2022-11-08T14:20:48.826Z,15.70
2022-11-08T14:24:56.002Z,15.70
2022-11-08T14:29:01.669Z,15.60
2022-11-08T14:33:14.969Z,15.60
2022-11-08T14:37:24.241Z,15.60
2022-11-08T14:41:30.384Z,15.50
2022-11-08T14:45:33.219Z,15.50
2022-11-08T14:49:38.277Z,15.50
2022-11-08T14:53:47.132Z,15.50
2022-11-08T14:57:52.102Z,15.50
2022-11-08T15:01:55.015Z,15.40
2022-11-08T15:06:00.155Z,15.30
2022-11-08T15:10:10.660Z,15.30
2022-11-08T15:14:23.031Z,15.30
2022-11-08T15:18:32.417Z,15.30
2022-11-08T15:22:37.036Z,15.20
2022-11-08T15:26:40.291Z,15.20
2022-11-08T15:30:44.914Z,15.10
2022-11-08T15:34:49.593Z,15.00
2022-11-08T15:38:52.502Z,15.00
2022-11-08T15:42:55.801Z,15.00
2022-11-08T15:46:59.931Z,14.90
2022-11-08T15:51:05.045Z,14.90
2022-11-08T15:55:08.855Z,14.80
2022-11-08T15:59:20.033Z,14.80
2022-11-08T16:03:25.907Z,14.70
2022-11-08T16:07:28.780Z,14.70
2022-11-08T16:11:32.676Z,14.70
2022-11-08T16:15:36.561Z,14.70
2022-11-08T16:19:40.751Z,14.70
2022-11-08T16:23:43.753Z,14.60
2022-11-08T16:27:51.360Z,14.60
2022-11-08T16:31:54.172Z,14.60
2022-11-08T16:35:59.597Z,14.50
2022-11-08T16:40:02.926Z,14.50
2022-11-08T16:44:06.072Z,14.40
2022-11-08T16:48:14.843Z,14.40
2022-11-08T16:52:19.100Z,14.30
2022-11-08T16:56:22.229Z,14.30
2022-11-08T17:00:25.090Z,14.30
2022-11-08T17:04:27.935Z,14.20
2022-11-08T17:08:32.086Z,14.20
2022-11-08T17:12:34.893Z,14.10
2022-11-08T17:16:37.776Z,14.10
2022-11-08T17:20:40.999Z,14.10
2022-11-08T17:24:45.341Z,14.10
2022-11-08T17:28:48.175Z,14.10
2022-11-08T17:32:51.061Z,14.10
2022-11-08T17:36:53.913Z,14.10
2022-11-08T17:41:05.197Z,14.10
2022-11-08T17:45:09.551Z,14.10
2022-11-08T17:49:12.355Z,14.10
2022-11-08T17:53:15.170Z,14.10
2022-11-08T17:57:19.334Z,14.10
2022-11-08T18:01:22.249Z,14.10
2022-11-08T18:05:25.449Z,14.10
2022-11-08T18:09:28.279Z,14.10
2022-11-08T18:13:34.382Z,14.10
2022-11-08T18:17:37.240Z,14.10
2022-11-08T18:21:40.115Z,14.10
2022-11-08T18:25:48.081Z,14.10
2022-11-08T18:29:52.309Z,14.10
2022-11-08T18:33:55.594Z,14.10
2022-11-08T18:37:58.461Z,14.10
2022-11-08T18:42:01.301Z,14.20
2022-11-08T18:46:06.809Z,14.20
2022-11-08T18:50:10.290Z,14.20
2022-11-08T18:54:13.097Z,14.20
2022-11-08T18:58:16.297Z,14.20
2022-11-08T19:02:20.986Z,14.10
2022-11-08T19:06:23.836Z,14.20
2022-11-08T19:10:26.816Z,14.10
2022-11-08T19:14:29.640Z,14.10
2022-11-08T19:18:34.852Z,14.10
2022-11-08T19:22:37.700Z,14.10
2022-11-08T19:26:40.545Z,14.10
2022-11-08T19:30:50.461Z,14.10
2022-11-08T19:34:54.667Z,14.10
2022-11-08T19:38:58.864Z,14.20
2022-11-08T19:43:01.671Z,14.20
2022-11-08T19:47:04.585Z,14.20
2022-11-08T19:51:13.708Z,14.20
2022-11-08T19:55:16.577Z,14.20
2022-11-08T19:59:19.516Z,14.20
2022-11-08T20:03:22.348Z,14.20
2022-11-08T20:07:26.490Z,14.20
2022-11-08T20:11:31.455Z,14.10
2022-11-08T20:15:34.245Z,14.10
2022-11-08T20:19:37.189Z,14.10
2022-11-08T20:23:42.428Z,14.10
2022-11-08T20:27:45.228Z,14.10
2022-11-08T20:31:51.829Z,14.10
2022-11-08T20:35:55.100Z,14.00
2022-11-08T20:39:59.247Z,14.00
2022-11-08T20:44:02.105Z,14.00
2022-11-08T20:48:05.239Z,14.00
2022-11-08T20:52:08.223Z,14.00
2022-11-08T20:56:14.591Z,14.00
2022-11-08T21:00:32.949Z,14.00
2022-11-08T21:04:41.094Z,14.00
2022-11-08T21:09:04.875Z,14.00
2022-11-08T21:13:08.419Z,14.00
2022-11-08T21:17:26.408Z,14.00
2022-11-08T21:21:30.902Z,14.00
2022-11-08T21:25:33.802Z,14.00
2022-11-08T21:29:38.173Z,14.00
2022-11-08T21:33:40.976Z,14.00
2022-11-08T21:37:43.811Z,14.00
2022-11-08T21:41:46.562Z,14.00
2022-11-08T21:45:50.704Z,14.00
2022-11-08T21:49:53.597Z,14.00
2022-11-08T21:53:58.234Z,14.00
2022-11-08T21:58:03.911Z,14.10
2022-11-08T22:02:08.568Z,14.10
2022-11-08T22:06:11.352Z,14.10
2022-11-08T22:10:14.446Z,14.10
2022-11-08T22:14:17.202Z,14.10
2022-11-08T22:18:31.201Z,14.10
2022-11-08T22:22:44.143Z,14.10
2022-11-08T22:26:47.621Z,14.10
2022-11-08T22:30:52.198Z,14.10
2022-11-08T22:34:58.252Z,14.10
2022-11-08T22:39:01.569Z,14.10
2022-11-08T22:43:07.371Z,14.00
2022-11-08T22:47:10.487Z,14.00
2022-11-08T22:51:14.778Z,14.00
2022-11-08T22:55:17.820Z,14.00
2022-11-08T22:59:23.757Z,14.00
2022-11-08T23:03:27.246Z,14.00
2022-11-08T23:07:31.947Z,13.90
2022-11-08T23:11:54.149Z,13.90
2022-11-08T23:16:14.723Z,13.90
2022-11-08T23:20:35.460Z,13.80
2022-11-08T23:24:39.722Z,13.80
2022-11-08T23:29:08.392Z,13.80
2022-11-08T23:33:11.337Z,13.70
2022-11-08T23:37:14.255Z,13.70
2022-11-08T23:41:35.853Z,13.80
2022-11-08T23:45:38.634Z,13.80
2022-11-08T23:49:41.532Z,13.90
2022-11-08T23:53:44.781Z,14.00
2022-11-08T23:57:49.878Z,14.20
